Enid, OK (73701)

6:21 PM CST on February 05, 2016 (GMT -0600)
Willow Run | | Change Station
CLOSE
Current Station
Personal Weather Station
Location: Enid, OK
Elevation: 1268 ft
Nearby Weather Stations

Elev 1268 ft 36.42 °N, 97.90 °W | Updated 15 minutes ago

Mostly Cloudy
Mostly Cloudy
50.5 °F
Feels Like 50.5 °F
N
0.0
Wind Variable Wind from SSE
Gusts 3.7 mph

Today
High -- | Low -- °F
--% Chance of Precip.
Yesterday
High -- | Low -- °F
Precip. -- in
Pressure 30.24 in
Visibility 10.0 miles
Clouds Few 8500 ft
Mostly Cloudy 20000 ft
Dew Point 28 °F
Humidity 42%
Rainfall 0.00 in
Snow Depth Not available.
7:29 AM 6:01 PM
Waning Crescent, 8% visible
METAR KWDG 052350Z 00000KT 10SM FEW085 BKN200 10/00 A3024
Pressure 30.24 in
Visibility 10.0 miles
Clouds Few 8500 ft
Mostly Cloudy 20000 ft
Dew Point 28 °F
Humidity 42%
Rainfall 0.00 in
Snow Depth Not available.
7:29 AM 6:01 PM
Waning Crescent, 8% visible
METAR KWDG 052350Z 00000KT 10SM FEW085 BKN200 10/00 A3024

10-Day Weather Forecast

Almanac

Astronomy

Feb. 05, 2016 Rise Set
Actual Time
Civil Twilight
Nautical Twilight
Astronomical Twilight
Moon
Length of Visible Light
Length of Day
Tomorrow will be .
, % of the Moon is Illuminated

Today's Extremes

State Highs State Lows

Community

WunderPhotos

Upload Photos

1,890,897 photos uploaded!

WunderBlog® & News

Nearby

Air Quality

  Air Quality AQ Index Pollutant
Not available.

Snow Depth

Station Depth Elevation

Earthquake Activity

City Distance Mag. Time & Date
Minimum magnitude displayed is 2.5.

Coastal Water Temperatures

Place Temperature

Stations

Nearby Weather Stations

Station Location Temp. Windchill Dew Point Humidity Wind Precip. Elev Updated Type
                   

Watches & Warnings

There are currently no watches in effect.